Observations for NORMAN WESTHEIMER, OK (OUN)

KOUN 150015Z AUTO 32003KT 10SM CLR 06/M03 A3013 RMK AO2 T00561034   
KOUN 142355Z AUTO 32004KT 10SM CLR 06/M03 A3013 RMK AO2 T00571035 10104 20051 401330025 
KOUN 142335Z AUTO 33007KT 10SM CLR 06/M03 A3013 RMK AO2 T00591035   
KOUN 142315Z AUTO 33008KT 10SM CLR 07/M03 A3012 RMK AO2 T00701034   
KOUN 142255Z AUTO 34009KT 10SM CLR 07/M04 A3012 RMK AO2 T00731036   
KOUN 142235Z AUTO 35011KT 10SM CLR 09/M04 A3011 RMK AO2 T00861037   
KOUN 142215Z AUTO 33012KT 10SM CLR 09/M04 A3011 RMK AO2 T00891038   
KOUN 142155Z AUTO 36013KT 10SM CLR 09/M04 A3010 RMK AO2 T00951038   
KOUN 142135Z AUTO 35016KT 10SM CLR 10/M04 A3010 RMK AO2 T00981041   
KOUN 142115Z AUTO 36016KT 10SM CLR 10/M04 A3010 RMK AO2 T01011045   
KOUN 142055Z AUTO 35013G20KT 10SM CLR 10/M04 A3009 RMK AO2 T01011043
KOUN 142035Z AUTO 32012G17KT 10SM CLR 10/M04 A3010 RMK AO2 T01001035
KOUN 142015Z AUTO 33011G18KT 10SM CLR 10/M03 A3010 RMK AO2 T01031031
KOUN 141955Z AUTO 35015KT 10SM CLR 10/M03 A3010 RMK AO2 T00981033   
KOUN 141935Z AUTO 35014G17KT 10SM CLR 10/M03 A3011 RMK AO2 T01001033
KOUN 141915Z AUTO 34017KT 10SM CLR 10/M03 A3011 RMK AO2 T00961035   
KOUN 141855Z AUTO 35014KT 10SM CLR 10/M03 A3012 RMK AO2 T00961033   
KOUN 141835Z AUTO 33016KT 10SM CLR 10/M03 A3013 RMK AO2 T00991033   
KOUN 141815Z AUTO 35012G16KT 10SM CLR 10/M03 A3014 RMK AO2 T00961030
KOUN 141755Z AUTO 35013KT 10SM CLR 09/M03 A3015 RMK AO2 T00921027 10095 20030   
KOUN 141735Z AUTO 01010KT 10SM CLR 09/M03 A3016 RMK AO2 T00911027   
KOUN 141715Z AUTO 36013G18KT 10SM CLR 09/M03 A3016 RMK AO2 T00871026
KOUN 141655Z AUTO 01010G17KT 10SM CLR 09/M02 A3016 RMK AO2 T00851025
KOUN 141635Z AUTO 36010KT 10SM CLR 08/M02 A3016 RMK AO2 T00821024   
KOUN 141615Z AUTO 36012KT 10SM CLR 08/M02 A3016 RMK AO2 T00791024   
KOUN 141515Z AUTO 01009KT 10SM CLR 07/M02 A3014 RMK AO2 T00671021   
KOUN 141455Z AUTO 02009KT 10SM CLR 06/M02 A3012 RMK AO2 T00641020   
KOUN 141435Z AUTO 02009KT 10SM CLR 06/M02 A3011 RMK AO2 T00551019   
KOUN 141415Z AUTO 02006KT 10SM CLR 05/M02 A3010 RMK AO2 T00491018   
KOUN 141355Z AUTO 36006KT 10SM CLR 03/M03 A3009 RMK AO2 T00311026   
KOUN 141335Z AUTO 02006KT 10SM CLR 03/M03 A3007 RMK AO2 T00321027   
KOUN 141315Z AUTO 36007KT 10SM CLR 04/M02 A3005 RMK AO2 T00421024   
KOUN 141255Z AUTO 35008KT 10SM CLR 04/M03 A3004 RMK AO2 T00401026   
KOUN 141235Z AUTO 35007KT 10SM CLR 04/M03 A3004 RMK AO2 T00421028   
KOUN 141215Z AUTO 36007KT 10SM CLR 04/M03 A3003 RMK AO2 T00441028   
KOUN 141155Z AUTO 35007KT 10SM CLR 05/M03 A3002 RMK AO2 T00501025 10061 20029   
KOUN 141135Z AUTO 36008KT 10SM CLR 05/M03 A3001 RMK AO2 T00501026   
KOUN 141115Z AUTO 36007KT 10SM CLR 05/M03 A3000 RMK AO2 T00481029   
KOUN 141055Z AUTO 36008KT 10SM CLR 05/M03 A2999 RMK AO2 T00501031   
KOUN 141035Z AUTO 36010KT 10SM CLR 05/M03 A2998 RMK AO2 T00531031   
KOUN 141015Z AUTO 36011KT 10SM CLR 05/M03 A2998 RMK AO2 T00531033   
KOUN 140955Z AUTO 36011KT 10SM CLR 05/M03 A2997 RMK AO2 T00521035   
KOUN 140935Z AUTO 35011KT 10SM CLR 05/M04 A2997 RMK AO2 T00461037   
KOUN 140915Z AUTO 35009KT 10SM CLR 03/M04 A2997 RMK AO2 T00301042   
KOUN 140855Z AUTO 36008KT 10SM CLR 04/M04 A2997 RMK AO2 T00391041   
KOUN 140835Z AUTO 02006KT 10SM CLR 04/M04 A2996 RMK AO2 T00421044   
KOUN 140815Z AUTO 02006KT 10SM CLR 05/M04 A2995 RMK AO2 T00461043   
KOUN 140755Z AUTO 02006KT 10SM CLR 05/M04 A2995 RMK AO2 T00461042   
KOUN 140735Z AUTO 01007KT 10SM CLR 05/M04 A2994 RMK AO2 T00491043   
KOUN 140715Z AUTO 01008KT 10SM CLR 05/M04 A2994 RMK AO2 T00501042   
KOUN 140655Z AUTO 01007KT 10SM CLR 05/M04 A2994 RMK AO2 T00541040   
KOUN 140635Z AUTO 36007KT 10SM CLR 05/M04 A2993 RMK AO2 T00491044   
KOUN 140615Z AUTO 35008KT 10SM CLR 05/M05 A2994 RMK AO2 T00491051   
KOUN 140555Z AUTO 36006KT 10SM CLR 04/M05 A2994 RMK AO2 T00401047 10133 20025   
KOUN 140535Z AUTO 34007KT 10SM CLR 04/M05 A2994 RMK AO2 T00371050   
KOUN 140515Z AUTO 33005KT 10SM CLR 04/M05 A2994 RMK AO2 T00371051   
KOUN 140455Z AUTO 32007KT 10SM CLR 06/M05 A2993 RMK AO2 T00551052   
KOUN 140435Z AUTO 32007KT 10SM CLR 04/M05 A2993 RMK AO2 T00441052   
KOUN 140415Z AUTO 33007KT 10SM CLR 03/M05 A2992 RMK AO2 T00341051   
KOUN 140355Z AUTO 33005KT 10SM CLR 06/M06 A2992 RMK AO2 T00611057   
KOUN 140335Z AUTO 32003KT 10SM CLR 07/M06 A2992 RMK AO2 T00661058   
KOUN 140315Z AUTO 31004KT 10SM CLR 08/M06 A2992 RMK AO2 T00801061   
KOUN 140255Z AUTO 29005KT 10SM CLR 09/M06 A2991 RMK AO2 T00911061   
KOUN 140235Z AUTO 28003KT 10SM CLR 09/M06 A2991 RMK AO2 T00891060   
KOUN 140215Z AUTO 00000KT 10SM CLR 09/M06 A2990 RMK AO2 T00881058   
KOUN 140155Z AUTO 00000KT 10SM CLR 08/M06 A2990 RMK AO2 T00811061   
KOUN 140135Z AUTO 31005KT 10SM CLR 10/M06 A2989 RMK AO2 T00961061   
KOUN 140115Z AUTO 32006KT 10SM CLR 10/M06 A2989 RMK AO2 T01011060   
KOUN 140055Z AUTO 33007KT 10SM CLR 10/M06 A2989 RMK AO2 T00971058   
KOUN 140035Z AUTO 34006KT 10SM CLR 11/M07 A2988 RMK AO2 T01141068   
KOUN 140015Z AUTO 35004KT 10SM CLR 13/M07 A2988 RMK AO2 T01321071   
KOUN 132355Z AUTO 00000KT 10SM CLR 12/M07 A2988 RMK AO2 T01241069 10190 20102 401900011